Ashfield, Massachusetts
Current Conditions -  °F | °C
As of 10:52 AM on Wednesday 28 Jan 2015 (Local Time) from KAQW Reporting Station
Overcast Overcast  
Wind Chill: -4°   Ceiling: 9000
Heat Index: 11°   Visibility: 10mi
Dew Point:   Wind: 13mph
Humidity: 64%   Direction: 280°W
Pressure: 30.06"   Gusts: 22mph
Location:  42.53°N, 72.79°W
Report Text: KAQW 281552Z AUTO 28011G19KT 10SM OVC090 M12/M17 A3006 RMK AO2 SLP193 T11171172
Loading
Personal Weather Stations






























Interactive Weather Map New forecast layout! Learn more

10-Day Weather Forecast

Advertisements
Track Severe Weather on mobile